sensor_id;sensor_type;location;lat;lon;timestamp;temperature;humidity
35565;DHT22;21668;44.784;10.336;2022-07-23T00:02:40;28.30;82.30
35565;DHT22;21668;44.784;10.336;2022-07-23T00:05:44;28.20;82.50
35565;DHT22;21668;44.784;10.336;2022-07-23T00:08:47;28.10;82.50
35565;DHT22;21668;44.784;10.336;2022-07-23T00:11:51;28.00;82.70
35565;DHT22;21668;44.784;10.336;2022-07-23T00:14:55;28.00;82.80
35565;DHT22;21668;44.784;10.336;2022-07-23T00:17:59;27.90;83.00
35565;DHT22;21668;44.784;10.336;2022-07-23T00:21:02;27.80;83.30
35565;DHT22;21668;44.784;10.336;2022-07-23T00:24:06;27.80;83.60
35565;DHT22;21668;44.784;10.336;2022-07-23T00:27:10;27.80;83.50
35565;DHT22;21668;44.784;10.336;2022-07-23T00:30:14;27.70;83.70
35565;DHT22;21668;44.784;10.336;2022-07-23T00:33:17;27.60;83.80
35565;DHT22;21668;44.784;10.336;2022-07-23T00:36:22;27.60;83.80
35565;DHT22;21668;44.784;10.336;2022-07-23T00:39:26;27.60;83.80
35565;DHT22;21668;44.784;10.336;2022-07-23T00:42:31;27.50;83.90
35565;DHT22;21668;44.784;10.336;2022-07-23T00:45:34;27.40;83.80
35565;DHT22;21668;44.784;10.336;2022-07-23T00:48:38;27.40;83.50
35565;DHT22;21668;44.784;10.336;2022-07-23T00:51:42;27.30;83.30
35565;DHT22;21668;44.784;10.336;2022-07-23T00:54:46;27.30;83.50
35565;DHT22;21668;44.784;10.336;2022-07-23T00:57:50;27.20;82.90
35565;DHT22;21668;44.784;10.336;2022-07-23T01:00:54;27.20;82.80
35565;DHT22;21668;44.784;10.336;2022-07-23T01:03:58;27.10;82.60
35565;DHT22;21668;44.784;10.336;2022-07-23T01:07:01;27.20;82.10
35565;DHT22;21668;44.784;10.336;2022-07-23T01:10:06;27.10;81.90
35565;DHT22;21668;44.784;10.336;2022-07-23T01:13:30;27.00;81.80
35565;DHT22;21668;44.784;10.336;2022-07-23T01:16:34;27.00;81.60
35565;DHT22;21668;44.784;10.336;2022-07-23T01:19:37;26.90;81.50
35565;DHT22;21668;44.784;10.336;2022-07-23T01:22:41;26.80;81.70
35565;DHT22;21668;44.784;10.336;2022-07-23T01:25:49;26.70;81.50
35565;DHT22;21668;44.784;10.336;2022-07-23T01:28:55;26.70;81.70
35565;DHT22;21668;44.784;10.336;2022-07-23T01:32:00;26.60;81.70
35565;DHT22;21668;44.784;10.336;2022-07-23T01:35:03;26.60;82.00
35565;DHT22;21668;44.784;10.336;2022-07-23T01:38:07;26.50;82.10
35565;DHT22;21668;44.784;10.336;2022-07-23T01:41:12;26.50;81.80
35565;DHT22;21668;44.784;10.336;2022-07-23T01:44:16;26.40;81.50
35565;DHT22;21668;44.784;10.336;2022-07-23T01:47:21;26.20;80.80
35565;DHT22;21668;44.784;10.336;2022-07-23T01:50:28;26.10;80.70
35565;DHT22;21668;44.784;10.336;2022-07-23T01:53:54;26.60;81.30
35565;DHT22;21668;44.784;10.336;2022-07-23T01:56:58;25.90;80.50
35565;DHT22;21668;44.784;10.336;2022-07-23T02:00:02;25.90;80.60
35565;DHT22;21668;44.784;10.336;2022-07-23T02:03:16;25.80;80.50
35565;DHT22;21668;44.784;10.336;2022-07-23T02:06:20;25.80;80.50
35565;DHT22;21668;44.784;10.336;2022-07-23T02:09:24;25.70;80.40
35565;DHT22;21668;44.784;10.336;2022-07-23T02:12:27;25.70;80.30
35565;DHT22;21668;44.784;10.336;2022-07-23T02:15:31;25.60;80.80
35565;DHT22;21668;44.784;10.336;2022-07-23T02:18:36;25.60;81.10
35565;DHT22;21668;44.784;10.336;2022-07-23T02:21:39;25.60;81.10
35565;DHT22;21668;44.784;10.336;2022-07-23T02:24:43;25.70;81.10
35565;DHT22;21668;44.784;10.336;2022-07-23T02:27:46;25.70;81.00
35565;DHT22;21668;44.784;10.336;2022-07-23T02:30:51;25.70;80.80
35565;DHT22;21668;44.784;10.336;2022-07-23T02:33:54;25.70;80.20
35565;DHT22;21668;44.784;10.336;2022-07-23T02:36:59;25.80;78.10
35565;DHT22;21668;44.784;10.336;2022-07-23T02:40:06;25.90;77.10
35565;DHT22;21668;44.784;10.336;2022-07-23T02:43:12;26.10;76.00
35565;DHT22;21668;44.784;10.336;2022-07-23T02:46:17;27.70;75.80
35565;DHT22;21668;44.784;10.336;2022-07-23T02:49:21;26.40;74.20
35565;DHT22;21668;44.784;10.336;2022-07-23T02:52:27;26.50;74.80
35565;DHT22;21668;44.784;10.336;2022-07-23T02:55:31;26.60;73.70
35565;DHT22;21668;44.784;10.336;2022-07-23T02:58:38;26.60;73.40
35565;DHT22;21668;44.784;10.336;2022-07-23T03:01:42;26.60;74.10
35565;DHT22;21668;44.784;10.336;2022-07-23T03:04:46;26.50;74.20
35565;DHT22;21668;44.784;10.336;2022-07-23T03:07:50;26.40;74.20
35565;DHT22;21668;44.784;10.336;2022-07-23T03:10:54;26.40;74.40
35565;DHT22;21668;44.784;10.336;2022-07-23T03:13:58;26.30;73.70
35565;DHT22;21668;44.784;10.336;2022-07-23T03:17:01;26.20;73.20
35565;DHT22;21668;44.784;10.336;2022-07-23T03:20:05;26.30;72.90
35565;DHT22;21668;44.784;10.336;2022-07-23T03:23:10;26.20;73.00
35565;DHT22;21668;44.784;10.336;2022-07-23T03:26:14;26.20;72.80
35565;DHT22;21668;44.784;10.336;2022-07-23T03:29:18;26.30;72.90
35565;DHT22;21668;44.784;10.336;2022-07-23T03:32:22;26.30;72.70
35565;DHT22;21668;44.784;10.336;2022-07-23T03:35:26;26.30;72.50
35565;DHT22;21668;44.784;10.336;2022-07-23T03:38:53;26.20;72.20
35565;DHT22;21668;44.784;10.336;2022-07-23T03:41:57;26.10;72.60
35565;DHT22;21668;44.784;10.336;2022-07-23T03:45:00;26.10;73.00
35565;DHT22;21668;44.784;10.336;2022-07-23T03:48:05;26.10;72.70
35565;DHT22;21668;44.784;10.336;2022-07-23T03:51:09;26.20;72.30
35565;DHT22;21668;44.784;10.336;2022-07-23T03:54:15;26.20;72.00
35565;DHT22;21668;44.784;10.336;2022-07-23T03:57:18;26.20;71.90
35565;DHT22;21668;44.784;10.336;2022-07-23T04:00:22;26.30;71.40
35565;DHT22;21668;44.784;10.336;2022-07-23T04:03:28;26.30;71.20
35565;DHT22;21668;44.784;10.336;2022-07-23T04:06:32;26.40;71.00
35565;DHT22;21668;44.784;10.336;2022-07-23T04:09:36;26.40;70.70
35565;DHT22;21668;44.784;10.336;2022-07-23T04:12:40;26.40;70.50
35565;DHT22;21668;44.784;10.336;2022-07-23T04:15:45;26.50;71.10
35565;DHT22;21668;44.784;10.336;2022-07-23T04:18:48;26.60;71.10
35565;DHT22;21668;44.784;10.336;2022-07-23T04:21:56;26.60;71.00
35565;DHT22;21668;44.784;10.336;2022-07-23T04:25:01;26.70;71.00
35565;DHT22;21668;44.784;10.336;2022-07-23T04:28:04;26.70;70.60
35565;DHT22;21668;44.784;10.336;2022-07-23T04:31:08;26.70;70.40
35565;DHT22;21668;44.784;10.336;2022-07-23T04:34:14;26.80;70.20
35565;DHT22;21668;44.784;10.336;2022-07-23T04:37:18;26.80;70.50
35565;DHT22;21668;44.784;10.336;2022-07-23T04:40:21;26.80;70.30
35565;DHT22;21668;44.784;10.336;2022-07-23T04:43:25;26.90;70.00
35565;DHT22;21668;44.784;10.336;2022-07-23T04:46:29;27.00;69.50
35565;DHT22;21668;44.784;10.336;2022-07-23T04:49:34;27.10;69.60
35565;DHT22;21668;44.784;10.336;2022-07-23T04:52:38;27.20;69.80
35565;DHT22;21668;44.784;10.336;2022-07-23T04:55:41;27.20;69.80
35565;DHT22;21668;44.784;10.336;2022-07-23T04:58:45;27.30;69.30
35565;DHT22;21668;44.784;10.336;2022-07-23T05:01:49;27.40;69.30
35565;DHT22;21668;44.784;10.336;2022-07-23T05:04:54;27.50;69.00
35565;DHT22;21668;44.784;10.336;2022-07-23T05:07:58;27.60;69.60
35565;DHT22;21668;44.784;10.336;2022-07-23T05:11:04;27.50;69.70
35565;DHT22;21668;44.784;10.336;2022-07-23T05:14:08;27.60;69.50
35565;DHT22;21668;44.784;10.336;2022-07-23T05:17:12;27.50;70.60
35565;DHT22;21668;44.784;10.336;2022-07-23T05:20:17;27.60;70.80
35565;DHT22;21668;44.784;10.336;2022-07-23T05:23:21;27.70;70.80
35565;DHT22;21668;44.784;10.336;2022-07-23T05:26:26;27.70;70.90
35565;DHT22;21668;44.784;10.336;2022-07-23T05:29:29;27.80;71.20
35565;DHT22;21668;44.784;10.336;2022-07-23T05:32:34;27.80;70.90
35565;DHT22;21668;44.784;10.336;2022-07-23T05:35:47;27.90;70.80
35565;DHT22;21668;44.784;10.336;2022-07-23T05:39:01;28.00;71.60
35565;DHT22;21668;44.784;10.336;2022-07-23T05:42:07;28.00;71.30
35565;DHT22;21668;44.784;10.336;2022-07-23T05:45:11;28.90;70.30
35565;DHT22;21668;44.784;10.336;2022-07-23T05:48:19;30.60;67.60
35565;DHT22;21668;44.784;10.336;2022-07-23T05:51:40;32.10;65.10
35565;DHT22;21668;44.784;10.336;2022-07-23T05:54:44;33.30;63.80
35565;DHT22;21668;44.784;10.336;2022-07-23T05:57:47;34.40;62.00
35565;DHT22;21668;44.784;10.336;2022-07-23T06:00:51;35.20;61.30
35565;DHT22;21668;44.784;10.336;2022-07-23T06:03:55;35.70;60.60
35565;DHT22;21668;44.784;10.336;2022-07-23T06:07:00;36.60;59.60
35565;DHT22;21668;44.784;10.336;2022-07-23T06:10:05;36.60;59.20
35565;DHT22;21668;44.784;10.336;2022-07-23T06:13:09;36.80;59.30
35565;DHT22;21668;44.784;10.336;2022-07-23T06:16:14;36.60;58.80
35565;DHT22;21668;44.784;10.336;2022-07-23T06:19:17;36.90;58.50
35565;DHT22;21668;44.784;10.336;2022-07-23T06:22:21;36.70;58.90
35565;DHT22;21668;44.784;10.336;2022-07-23T06:25:25;35.40;60.00
35565;DHT22;21668;44.784;10.336;2022-07-23T06:28:29;34.00;62.50
35565;DHT22;21668;44.784;10.336;2022-07-23T06:31:32;33.40;63.80
35565;DHT22;21668;44.784;10.336;2022-07-23T06:34:37;33.40;63.50
35565;DHT22;21668;44.784;10.336;2022-07-23T06:37:40;33.90;62.60
35565;DHT22;21668;44.784;10.336;2022-07-23T06:40:44;33.60;63.20
35565;DHT22;21668;44.784;10.336;2022-07-23T06:43:48;33.90;62.70
35565;DHT22;21668;44.784;10.336;2022-07-23T06:46:53;33.60;62.30
35565;DHT22;21668;44.784;10.336;2022-07-23T06:49:57;33.10;62.30
35565;DHT22;21668;44.784;10.336;2022-07-23T06:53:02;32.40;62.60
35565;DHT22;21668;44.784;10.336;2022-07-23T06:56:05;32.20;63.40
35565;DHT22;21668;44.784;10.336;2022-07-23T06:59:10;32.10;63.00
35565;DHT22;21668;44.784;10.336;2022-07-23T07:02:14;31.90;63.50
35565;DHT22;21668;44.784;10.336;2022-07-23T07:05:18;31.70;64.40
35565;DHT22;21668;44.784;10.336;2022-07-23T07:08:21;31.50;64.70
35565;DHT22;21668;44.784;10.336;2022-07-23T07:11:25;31.40;64.80
35565;DHT22;21668;44.784;10.336;2022-07-23T07:14:28;31.50;65.30
35565;DHT22;21668;44.784;10.336;2022-07-23T07:17:32;31.60;65.70
35565;DHT22;21668;44.784;10.336;2022-07-23T07:20:38;31.60;65.70
35565;DHT22;21668;44.784;10.336;2022-07-23T07:23:42;31.80;65.90
35565;DHT22;21668;44.784;10.336;2022-07-23T07:26:46;31.90;66.90
35565;DHT22;21668;44.784;10.336;2022-07-23T07:29:49;31.90;67.40
35565;DHT22;21668;44.784;10.336;2022-07-23T07:32:52;32.20;66.90
35565;DHT22;21668;44.784;10.336;2022-07-23T07:35:56;33.00;66.00
35565;DHT22;21668;44.784;10.336;2022-07-23T07:38:59;33.80;65.30
35565;DHT22;21668;44.784;10.336;2022-07-23T07:42:03;35.30;65.10
35565;DHT22;21668;44.784;10.336;2022-07-23T07:45:06;36.40;64.50
35565;DHT22;21668;44.784;10.336;2022-07-23T07:48:10;36.80;64.40
35565;DHT22;21668;44.784;10.336;2022-07-23T07:51:14;37.10;64.00
35565;DHT22;21668;44.784;10.336;2022-07-23T07:54:17;36.90;65.00
35565;DHT22;21668;44.784;10.336;2022-07-23T07:57:21;37.30;63.80
35565;DHT22;21668;44.784;10.336;2022-07-23T08:00:24;37.30;64.00
35565;DHT22;21668;44.784;10.336;2022-07-23T08:03:28;37.50;64.40
35565;DHT22;21668;44.784;10.336;2022-07-23T08:06:32;37.40;64.50
35565;DHT22;21668;44.784;10.336;2022-07-23T08:09:36;37.90;64.20
35565;DHT22;21668;44.784;10.336;2022-07-23T08:12:47;37.70;64.80
35565;DHT22;21668;44.784;10.336;2022-07-23T08:15:51;37.30;65.00
35565;DHT22;21668;44.784;10.336;2022-07-23T08:18:56;36.80;66.70
35565;DHT22;21668;44.784;10.336;2022-07-23T08:22:00;36.00;67.50
35565;DHT22;21668;44.784;10.336;2022-07-23T08:25:04;35.10;68.40
35565;DHT22;21668;44.784;10.336;2022-07-23T08:28:09;34.40;69.20
35565;DHT22;21668;44.784;10.336;2022-07-23T08:31:12;34.10;69.30
35565;DHT22;21668;44.784;10.336;2022-07-23T08:34:18;33.90;69.20
35565;DHT22;21668;44.784;10.336;2022-07-23T08:37:22;33.70;69.20
35565;DHT22;21668;44.784;10.336;2022-07-23T08:40:27;33.90;69.10
35565;DHT22;21668;44.784;10.336;2022-07-23T08:43:32;34.10;69.40
35565;DHT22;21668;44.784;10.336;2022-07-23T08:46:37;34.10;69.60
35565;DHT22;21668;44.784;10.336;2022-07-23T08:49:41;34.30;69.60
35565;DHT22;21668;44.784;10.336;2022-07-23T08:52:46;34.10;69.30
35565;DHT22;21668;44.784;10.336;2022-07-23T08:55:51;34.10;69.00
35565;DHT22;21668;44.784;10.336;2022-07-23T08:58:55;34.10;69.00
35565;DHT22;21668;44.784;10.336;2022-07-23T09:01:59;33.80;70.30
35565;DHT22;21668;44.784;10.336;2022-07-23T09:05:04;33.90;70.80
35565;DHT22;21668;44.784;10.336;2022-07-23T09:11:12;34.00;70.30
35565;DHT22;21668;44.784;10.336;2022-07-23T09:14:16;34.00;69.80
35565;DHT22;21668;44.784;10.336;2022-07-23T09:17:39;34.10;70.50
35565;DHT22;21668;44.784;10.336;2022-07-23T09:20:43;34.10;71.00
35565;DHT22;21668;44.784;10.336;2022-07-23T09:23:50;34.20;70.20
35565;DHT22;21668;44.784;10.336;2022-07-23T09:26:54;34.30;70.20
35565;DHT22;21668;44.784;10.336;2022-07-23T09:29:58;34.30;70.10
35565;DHT22;21668;44.784;10.336;2022-07-23T09:36:09;34.30;71.80
35565;DHT22;21668;44.784;10.336;2022-07-23T09:39:13;34.30;71.70
35565;DHT22;21668;44.784;10.336;2022-07-23T09:42:22;34.30;72.10
35565;DHT22;21668;44.784;10.336;2022-07-23T09:45:25;34.30;72.00
35565;DHT22;21668;44.784;10.336;2022-07-23T09:48:29;34.40;71.60
35565;DHT22;21668;44.784;10.336;2022-07-23T09:51:33;34.50;72.00
35565;DHT22;21668;44.784;10.336;2022-07-23T09:54:46;34.60;70.90
35565;DHT22;21668;44.784;10.336;2022-07-23T09:58:00;34.70;71.20
35565;DHT22;21668;44.784;10.336;2022-07-23T10:01:04;34.60;71.50
35565;DHT22;21668;44.784;10.336;2022-07-23T10:04:08;34.60;71.20
35565;DHT22;21668;44.784;10.336;2022-07-23T10:07:36;34.60;70.90
35565;DHT22;21668;44.784;10.336;2022-07-23T10:11:09;34.60;69.70
35565;DHT22;21668;44.784;10.336;2022-07-23T10:14:27;34.70;70.50
35565;DHT22;21668;44.784;10.336;2022-07-23T10:17:35;34.70;71.10
35565;DHT22;21668;44.784;10.336;2022-07-23T10:20:39;34.70;70.50
35565;DHT22;21668;44.784;10.336;2022-07-23T10:37:07;35.10;69.60
35565;DHT22;21668;44.784;10.336;2022-07-23T10:40:17;35.20;68.10
35565;DHT22;21668;44.784;10.336;2022-07-23T10:43:21;35.40;67.60
35565;DHT22;21668;44.784;10.336;2022-07-23T10:46:25;35.50;68.00
35565;DHT22;21668;44.784;10.336;2022-07-23T10:49:41;35.50;67.30
35565;DHT22;21668;44.784;10.336;2022-07-23T10:53:18;34.00;66.10
35565;DHT22;21668;44.784;10.336;2022-07-23T10:56:15;35.40;68.00
35565;DHT22;21668;44.784;10.336;2022-07-23T10:59:19;35.50;67.30
35565;DHT22;21668;44.784;10.336;2022-07-23T11:02:23;35.70;67.80
35565;DHT22;21668;44.784;10.336;2022-07-23T11:05:47;35.80;67.50
35565;DHT22;21668;44.784;10.336;2022-07-23T11:09:22;35.70;67.70
35565;DHT22;21668;44.784;10.336;2022-07-23T11:15:18;35.80;67.20
35565;DHT22;21668;44.784;10.336;2022-07-23T11:18:50;35.90;66.60
35565;DHT22;21668;44.784;10.336;2022-07-23T11:21:45;36.10;66.90
35565;DHT22;21668;44.784;10.336;2022-07-23T11:24:52;36.20;66.60
35565;DHT22;21668;44.784;10.336;2022-07-23T11:28:16;36.20;65.90
35565;DHT22;21668;44.784;10.336;2022-07-23T11:31:20;36.20;65.40
35565;DHT22;21668;44.784;10.336;2022-07-23T11:37:41;36.10;65.90
35565;DHT22;21668;44.784;10.336;2022-07-23T11:40:46;36.20;65.80
35565;DHT22;21668;44.784;10.336;2022-07-23T11:43:50;36.20;66.20
35565;DHT22;21668;44.784;10.336;2022-07-23T11:47:00;36.30;66.70
35565;DHT22;21668;44.784;10.336;2022-07-23T11:50:05;36.30;66.60
35565;DHT22;21668;44.784;10.336;2022-07-23T11:53:09;36.40;66.90
35565;DHT22;21668;44.784;10.336;2022-07-23T11:56:13;36.40;66.50
35565;DHT22;21668;44.784;10.336;2022-07-23T11:59:17;36.30;66.60
35565;DHT22;21668;44.784;10.336;2022-07-23T12:02:22;36.30;66.40
35565;DHT22;21668;44.784;10.336;2022-07-23T12:05:27;36.20;66.40
35565;DHT22;21668;44.784;10.336;2022-07-23T12:08:31;36.30;67.20
35565;DHT22;21668;44.784;10.336;2022-07-23T12:11:35;36.40;65.80
35565;DHT22;21668;44.784;10.336;2022-07-23T12:17:52;36.40;66.30
35565;DHT22;21668;44.784;10.336;2022-07-23T12:20:57;36.30;66.50
35565;DHT22;21668;44.784;10.336;2022-07-23T12:24:06;36.30;65.80
35565;DHT22;21668;44.784;10.336;2022-07-23T12:27:10;36.30;65.90
35565;DHT22;21668;44.784;10.336;2022-07-23T12:30:21;36.20;66.20
35565;DHT22;21668;44.784;10.336;2022-07-23T12:33:29;36.40;65.90
35565;DHT22;21668;44.784;10.336;2022-07-23T12:36:37;36.40;66.10
35565;DHT22;21668;44.784;10.336;2022-07-23T12:39:42;36.70;65.20
35565;DHT22;21668;44.784;10.336;2022-07-23T12:42:47;36.80;65.60
35565;DHT22;21668;44.784;10.336;2022-07-23T12:45:52;36.70;65.90
35565;DHT22;21668;44.784;10.336;2022-07-23T12:48:56;36.80;66.30
35565;DHT22;21668;44.784;10.336;2022-07-23T12:52:00;36.90;66.00
35565;DHT22;21668;44.784;10.336;2022-07-23T12:55:04;37.10;65.20
35565;DHT22;21668;44.784;10.336;2022-07-23T12:58:09;37.00;65.60
35565;DHT22;21668;44.784;10.336;2022-07-23T13:04:24;37.40;65.40
35565;DHT22;21668;44.784;10.336;2022-07-23T13:07:28;37.30;65.60
35565;DHT22;21668;44.784;10.336;2022-07-23T13:10:32;37.10;66.00
35565;DHT22;21668;44.784;10.336;2022-07-23T13:13:36;36.90;65.50
35565;DHT22;21668;44.784;10.336;2022-07-23T13:16:41;36.90;66.30
35565;DHT22;21668;44.784;10.336;2022-07-23T13:19:45;37.00;65.80
35565;DHT22;21668;44.784;10.336;2022-07-23T13:22:48;36.90;65.80
35565;DHT22;21668;44.784;10.336;2022-07-23T13:25:52;37.10;66.40
35565;DHT22;21668;44.784;10.336;2022-07-23T13:28:56;37.10;65.40
35565;DHT22;21668;44.784;10.336;2022-07-23T13:31:59;37.10;66.00
35565;DHT22;21668;44.784;10.336;2022-07-23T13:35:03;37.20;66.70
35565;DHT22;21668;44.784;10.336;2022-07-23T13:38:07;37.30;66.00
35565;DHT22;21668;44.784;10.336;2022-07-23T13:41:11;37.50;66.80
35565;DHT22;21668;44.784;10.336;2022-07-23T13:44:15;37.40;65.60
35565;DHT22;21668;44.784;10.336;2022-07-23T13:47:18;37.40;65.90
35565;DHT22;21668;44.784;10.336;2022-07-23T13:50:22;37.50;65.80
35565;DHT22;21668;44.784;10.336;2022-07-23T13:53:25;37.00;65.50
35565;DHT22;21668;44.784;10.336;2022-07-23T13:56:29;37.40;66.10
35565;DHT22;21668;44.784;10.336;2022-07-23T13:59:33;37.30;65.90
35565;DHT22;21668;44.784;10.336;2022-07-23T14:02:37;37.10;66.20
35565;DHT22;21668;44.784;10.336;2022-07-23T14:05:41;36.90;67.30
35565;DHT22;21668;44.784;10.336;2022-07-23T14:08:45;37.00;66.20
35565;DHT22;21668;44.784;10.336;2022-07-23T14:11:49;37.10;66.60
35565;DHT22;21668;44.784;10.336;2022-07-23T14:14:54;37.30;66.80
35565;DHT22;21668;44.784;10.336;2022-07-23T14:17:58;37.30;66.40
35565;DHT22;21668;44.784;10.336;2022-07-23T14:21:02;37.40;66.30
35565;DHT22;21668;44.784;10.336;2022-07-23T14:24:05;37.50;66.80
35565;DHT22;21668;44.784;10.336;2022-07-23T14:27:09;37.80;66.20
35565;DHT22;21668;44.784;10.336;2022-07-23T14:30:13;37.90;66.10
35565;DHT22;21668;44.784;10.336;2022-07-23T14:33:18;38.00;66.30
35565;DHT22;21668;44.784;10.336;2022-07-23T14:36:23;37.90;65.50
35565;DHT22;21668;44.784;10.336;2022-07-23T14:39:27;38.00;65.60
35565;DHT22;21668;44.784;10.336;2022-07-23T14:42:31;38.00;65.80
35565;DHT22;21668;44.784;10.336;2022-07-23T14:45:35;38.20;64.20
35565;DHT22;21668;44.784;10.336;2022-07-23T14:48:39;38.40;63.20
35565;DHT22;21668;44.784;10.336;2022-07-23T14:51:43;38.40;62.60
35565;DHT22;21668;44.784;10.336;2022-07-23T14:54:47;38.20;62.60
35565;DHT22;21668;44.784;10.336;2022-07-23T14:57:52;37.90;61.50
35565;DHT22;21668;44.784;10.336;2022-07-23T15:00:55;37.70;61.90
35565;DHT22;21668;44.784;10.336;2022-07-23T15:03:59;37.50;62.10
35565;DHT22;21668;44.784;10.336;2022-07-23T15:07:03;37.40;62.60
35565;DHT22;21668;44.784;10.336;2022-07-23T15:10:07;37.40;62.60
35565;DHT22;21668;44.784;10.336;2022-07-23T15:13:10;37.40;62.20
35565;DHT22;21668;44.784;10.336;2022-07-23T15:16:14;37.30;61.80
35565;DHT22;21668;44.784;10.336;2022-07-23T15:19:18;37.20;61.40
35565;DHT22;21668;44.784;10.336;2022-07-23T15:22:21;37.10;61.60
35565;DHT22;21668;44.784;10.336;2022-07-23T15:25:25;37.10;62.20
35565;DHT22;21668;44.784;10.336;2022-07-23T15:28:28;37.10;61.40
35565;DHT22;21668;44.784;10.336;2022-07-23T15:31:32;37.00;61.10
35565;DHT22;21668;44.784;10.336;2022-07-23T15:34:36;36.90;61.30
35565;DHT22;21668;44.784;10.336;2022-07-23T15:37:40;37.00;61.40
35565;DHT22;21668;44.784;10.336;2022-07-23T15:40:45;36.90;61.40
35565;DHT22;21668;44.784;10.336;2022-07-23T15:43:48;37.00;61.30
35565;DHT22;21668;44.784;10.336;2022-07-23T15:46:52;37.00;61.20
35565;DHT22;21668;44.784;10.336;2022-07-23T15:49:56;37.20;61.40
35565;DHT22;21668;44.784;10.336;2022-07-23T15:53:00;37.20;60.60
35565;DHT22;21668;44.784;10.336;2022-07-23T15:56:05;37.20;60.60
35565;DHT22;21668;44.784;10.336;2022-07-23T15:59:09;37.20;60.20
35565;DHT22;21668;44.784;10.336;2022-07-23T16:02:13;37.20;60.50
35565;DHT22;21668;44.784;10.336;2022-07-23T16:05:17;37.00;60.00
35565;DHT22;21668;44.784;10.336;2022-07-23T16:08:36;36.90;60.70
35565;DHT22;21668;44.784;10.336;2022-07-23T16:11:39;36.70;60.70
35565;DHT22;21668;44.784;10.336;2022-07-23T16:14:43;36.50;61.00
35565;DHT22;21668;44.784;10.336;2022-07-23T16:17:48;36.30;61.70
35565;DHT22;21668;44.784;10.336;2022-07-23T16:20:52;36.30;61.30
35565;DHT22;21668;44.784;10.336;2022-07-23T16:23:56;36.40;61.50
35565;DHT22;21668;44.784;10.336;2022-07-23T16:26:59;36.40;61.30
35565;DHT22;21668;44.784;10.336;2022-07-23T16:30:04;36.30;61.40
35565;DHT22;21668;44.784;10.336;2022-07-23T16:33:08;36.40;60.60
35565;DHT22;21668;44.784;10.336;2022-07-23T16:36:13;36.30;60.90
35565;DHT22;21668;44.784;10.336;2022-07-23T16:39:17;36.30;60.80
35565;DHT22;21668;44.784;10.336;2022-07-23T16:42:20;36.20;61.20
35565;DHT22;21668;44.784;10.336;2022-07-23T16:45:24;36.20;60.90
35565;DHT22;21668;44.784;10.336;2022-07-23T16:48:28;36.10;61.60
35565;DHT22;21668;44.784;10.336;2022-07-23T16:51:31;36.10;60.80
35565;DHT22;21668;44.784;10.336;2022-07-23T16:54:35;36.10;61.10
35565;DHT22;21668;44.784;10.336;2022-07-23T16:57:39;36.10;61.00
35565;DHT22;21668;44.784;10.336;2022-07-23T17:00:43;36.00;60.50
35565;DHT22;21668;44.784;10.336;2022-07-23T17:03:47;36.00;60.80
35565;DHT22;21668;44.784;10.336;2022-07-23T17:06:50;35.90;59.70
35565;DHT22;21668;44.784;10.336;2022-07-23T17:09:54;35.90;60.20
35565;DHT22;21668;44.784;10.336;2022-07-23T17:12:58;36.00;60.00
35565;DHT22;21668;44.784;10.336;2022-07-23T17:16:02;35.80;60.40
35565;DHT22;21668;44.784;10.336;2022-07-23T17:19:05;36.10;59.40
35565;DHT22;21668;44.784;10.336;2022-07-23T17:22:09;36.50;59.10
35565;DHT22;21668;44.784;10.336;2022-07-23T17:25:13;37.10;59.20
35565;DHT22;21668;44.784;10.336;2022-07-23T17:28:21;37.70;58.50
35565;DHT22;21668;44.784;10.336;2022-07-23T17:31:25;38.20;58.10
35565;DHT22;21668;44.784;10.336;2022-07-23T17:34:29;38.00;58.10
35565;DHT22;21668;44.784;10.336;2022-07-23T17:37:32;37.50;58.60
35565;DHT22;21668;44.784;10.336;2022-07-23T17:40:36;36.80;59.30
35565;DHT22;21668;44.784;10.336;2022-07-23T17:43:40;36.30;59.80
35565;DHT22;21668;44.784;10.336;2022-07-23T17:46:43;35.60;60.50
35565;DHT22;21668;44.784;10.336;2022-07-23T17:49:47;35.10;61.10
35565;DHT22;21668;44.784;10.336;2022-07-23T17:52:54;34.70;61.60
35565;DHT22;21668;44.784;10.336;2022-07-23T17:55:58;34.50;62.30
35565;DHT22;21668;44.784;10.336;2022-07-23T17:59:03;34.30;62.90
35565;DHT22;21668;44.784;10.336;2022-07-23T18:02:06;34.10;63.20
35565;DHT22;21668;44.784;10.336;2022-07-23T18:05:10;33.90;63.60
35565;DHT22;21668;44.784;10.336;2022-07-23T18:08:14;33.80;63.80
35565;DHT22;21668;44.784;10.336;2022-07-23T18:11:18;33.60;63.50
35565;DHT22;21668;44.784;10.336;2022-07-23T18:14:21;33.50;63.00
35565;DHT22;21668;44.784;10.336;2022-07-23T18:17:25;33.40;63.00
35565;DHT22;21668;44.784;10.336;2022-07-23T18:20:28;33.30;62.90
35565;DHT22;21668;44.784;10.336;2022-07-23T18:23:32;33.30;63.00
35565;DHT22;21668;44.784;10.336;2022-07-23T18:26:36;33.20;63.10
35565;DHT22;21668;44.784;10.336;2022-07-23T18:29:40;33.10;63.50
35565;DHT22;21668;44.784;10.336;2022-07-23T18:32:44;33.00;63.00
35565;DHT22;21668;44.784;10.336;2022-07-23T18:35:48;33.00;63.20
35565;DHT22;21668;44.784;10.336;2022-07-23T18:38:52;32.90;63.00
35565;DHT22;21668;44.784;10.336;2022-07-23T18:41:55;32.80;62.90
35565;DHT22;21668;44.784;10.336;2022-07-23T18:44:59;32.80;63.30
35565;DHT22;21668;44.784;10.336;2022-07-23T18:48:04;32.70;63.10
35565;DHT22;21668;44.784;10.336;2022-07-23T18:51:09;32.60;63.50
35565;DHT22;21668;44.784;10.336;2022-07-23T18:54:12;32.50;63.40
35565;DHT22;21668;44.784;10.336;2022-07-23T18:57:16;32.40;63.60
35565;DHT22;21668;44.784;10.336;2022-07-23T19:00:20;32.30;63.90
35565;DHT22;21668;44.784;10.336;2022-07-23T19:03:25;32.30;64.10
35565;DHT22;21668;44.784;10.336;2022-07-23T19:06:29;32.20;64.40
35565;DHT22;21668;44.784;10.336;2022-07-23T19:09:32;32.20;64.50
35565;DHT22;21668;44.784;10.336;2022-07-23T19:12:36;32.00;64.40
35565;DHT22;21668;44.784;10.336;2022-07-23T19:15:40;32.00;64.70
35565;DHT22;21668;44.784;10.336;2022-07-23T19:18:44;31.90;64.90
35565;DHT22;21668;44.784;10.336;2022-07-23T19:21:48;31.80;65.10
35565;DHT22;21668;44.784;10.336;2022-07-23T19:24:53;31.70;65.30
35565;DHT22;21668;44.784;10.336;2022-07-23T19:27:56;31.70;65.60
35565;DHT22;21668;44.784;10.336;2022-07-23T19:31:00;31.70;65.70
35565;DHT22;21668;44.784;10.336;2022-07-23T19:34:03;31.60;66.00
35565;DHT22;21668;44.784;10.336;2022-07-23T19:37:07;31.50;66.30
35565;DHT22;21668;44.784;10.336;2022-07-23T19:40:14;31.40;66.30
35565;DHT22;21668;44.784;10.336;2022-07-23T19:43:18;31.40;66.40